createdAt,value
2023-10-08T00:00:50.542Z,3.30
2023-10-08T00:03:21.608Z,3.63
2023-10-08T00:05:50.748Z,3.20
2023-10-08T00:08:19.325Z,3.17
2023-10-08T00:10:47.190Z,2.90
2023-10-08T00:13:16.841Z,2.77
2023-10-08T00:15:53.747Z,2.80
2023-10-08T00:18:24.901Z,2.90
2023-10-08T00:20:59.700Z,3.10
2023-10-08T00:23:27.883Z,2.33
2023-10-08T00:25:56.074Z,3.07
2023-10-08T00:28:24.125Z,2.90
2023-10-08T00:30:54.722Z,3.40
2023-10-08T00:33:25.436Z,3.00
2023-10-08T00:35:53.445Z,2.73
2023-10-08T00:38:22.248Z,3.07
2023-10-08T00:40:50.389Z,2.93
2023-10-08T00:43:35.332Z,2.80
2023-10-08T00:46:05.118Z,2.77
2023-10-08T00:48:37.061Z,2.77
2023-10-08T00:51:24.871Z,2.63
2023-10-08T00:53:58.866Z,2.77
2023-10-08T00:56:46.091Z,2.90
2023-10-08T00:59:16.979Z,3.17
2023-10-08T01:01:52.268Z,2.70
2023-10-08T01:04:27.462Z,2.97
2023-10-08T01:06:57.217Z,3.20
2023-10-08T01:09:32.963Z,3.37
2023-10-08T01:12:14.351Z,3.07
2023-10-08T01:14:44.463Z,3.10
2023-10-08T01:17:16.222Z,2.90
2023-10-08T01:19:46.681Z,3.07
2023-10-08T01:22:19.642Z,2.47
2023-10-08T01:24:49.785Z,3.40
2023-10-08T01:27:22.660Z,3.30
2023-10-08T01:29:52.011Z,2.90
2023-10-08T01:32:20.779Z,2.90
2023-10-08T01:34:48.990Z,2.90
2023-10-08T01:37:19.781Z,2.67
2023-10-08T01:39:49.451Z,2.73
2023-10-08T01:42:18.959Z,2.27
2023-10-08T01:44:48.480Z,3.10
2023-10-08T01:47:17.216Z,2.60
2023-10-08T01:49:47.029Z,2.90
2023-10-08T01:52:20.113Z,2.83
2023-10-08T01:54:49.463Z,3.03
2023-10-08T01:57:18.152Z,3.20
2023-10-08T01:59:46.640Z,3.00
2023-10-08T02:02:16.487Z,2.80
2023-10-08T02:04:45.496Z,2.73
2023-10-08T02:07:14.051Z,3.30
2023-10-08T02:09:42.358Z,3.20
2023-10-08T02:12:15.194Z,2.90
2023-10-08T02:14:43.725Z,3.03
2023-10-08T02:17:11.845Z,3.30
2023-10-08T02:19:39.880Z,3.30
2023-10-08T02:22:10.753Z,2.97
2023-10-08T02:24:39.062Z,3.03
2023-10-08T02:27:07.842Z,3.90
2023-10-08T02:29:37.368Z,3.60
2023-10-08T02:32:05.699Z,2.97
2023-10-08T02:34:33.972Z,3.20
2023-10-08T02:37:01.923Z,2.97
2023-10-08T02:39:31.469Z,3.00
2023-10-08T02:42:01.347Z,3.10
2023-10-08T02:44:29.658Z,2.87
2023-10-08T02:46:58.997Z,3.10
2023-10-08T02:49:31.354Z,2.90
2023-10-08T02:51:59.912Z,2.80
2023-10-08T02:54:33.936Z,2.73
2023-10-08T02:57:05.220Z,3.80
2023-10-08T02:59:40.995Z,3.70
2023-10-08T03:02:16.486Z,2.57
2023-10-08T03:04:46.842Z,3.00
2023-10-08T03:07:22.527Z,3.07
2023-10-08T03:09:51.746Z,2.80
2023-10-08T03:12:20.042Z,3.00
2023-10-08T03:15:02.371Z,3.33
2023-10-08T03:17:31.770Z,3.20
2023-10-08T03:20:19.823Z,3.63
2023-10-08T03:22:47.746Z,3.30
2023-10-08T03:25:17.947Z,3.13
2023-10-08T03:27:45.872Z,2.63
2023-10-08T03:30:15.816Z,2.70
2023-10-08T03:32:46.661Z,2.23
2023-10-08T03:35:14.678Z,3.10
2023-10-08T03:37:47.361Z,2.23
2023-10-08T03:40:26.510Z,3.27
2023-10-08T03:42:57.009Z,2.67
2023-10-08T03:45:38.882Z,2.70
2023-10-08T03:48:12.874Z,3.13
2023-10-08T03:50:42.811Z,3.10
2023-10-08T03:53:12.941Z,2.60
2023-10-08T03:55:42.627Z,2.70
2023-10-08T03:58:18.405Z,2.90
2023-10-08T04:00:47.162Z,2.60
2023-10-08T04:03:24.808Z,3.00
2023-10-08T04:06:05.780Z,3.60
2023-10-08T04:08:44.647Z,2.60
2023-10-08T04:11:29.718Z,2.83
2023-10-08T04:14:00.950Z,3.07
2023-10-08T04:16:29.066Z,2.70
2023-10-08T04:18:58.374Z,2.87
2023-10-08T04:21:28.826Z,3.20
2023-10-08T04:23:58.777Z,3.20
2023-10-08T04:26:26.859Z,2.87
2023-10-08T04:28:58.597Z,2.53
2023-10-08T04:31:29.581Z,2.83
2023-10-08T04:34:01.980Z,3.33
2023-10-08T04:36:30.255Z,3.23
2023-10-08T04:39:03.750Z,2.73
2023-10-08T04:41:31.961Z,3.20
2023-10-08T04:44:04.019Z,3.20
2023-10-08T04:46:47.837Z,3.33
2023-10-08T04:49:30.514Z,3.20
2023-10-08T04:51:59.677Z,3.67
2023-10-08T04:54:31.163Z,2.30
2023-10-08T04:57:01.053Z,3.03
2023-10-08T04:59:34.957Z,3.43
2023-10-08T05:02:20.248Z,3.20
2023-10-08T05:05:23.167Z,3.20
2023-10-08T05:08:18.634Z,3.27
2023-10-08T05:11:01.877Z,2.90
2023-10-08T05:13:34.285Z,3.00
2023-10-08T05:16:13.201Z,3.57
2023-10-08T05:18:55.081Z,3.70
2023-10-08T05:21:42.119Z,2.50
2023-10-08T05:24:14.662Z,3.30
2023-10-08T05:26:50.546Z,3.40
2023-10-08T05:29:36.218Z,2.97
2023-10-08T05:32:21.847Z,2.70
2023-10-08T05:35:13.544Z,3.00
2023-10-08T05:37:43.462Z,3.70
2023-10-08T05:40:22.867Z,3.17
2023-10-08T05:43:02.089Z,3.83
2023-10-08T05:45:36.272Z,3.50
2023-10-08T05:48:14.382Z,3.70
2023-10-08T05:50:56.260Z,3.40
2023-10-08T05:53:44.490Z,2.93
2023-10-08T05:56:29.658Z,3.10
2023-10-08T05:59:19.275Z,2.87
2023-10-08T06:01:47.513Z,3.30
2023-10-08T06:04:32.080Z,3.57
2023-10-08T06:07:13.300Z,3.80
2023-10-08T06:09:51.671Z,3.73
2023-10-08T06:12:31.351Z,3.50
2023-10-08T06:15:13.201Z,3.47
2023-10-08T06:18:01.095Z,2.97
2023-10-08T06:20:30.189Z,3.67
2023-10-08T06:23:04.554Z,3.77
2023-10-08T06:25:33.965Z,3.17
2023-10-08T06:28:04.062Z,4.20
2023-10-08T06:30:35.999Z,3.50
2023-10-08T06:33:04.969Z,4.67
2023-10-08T06:35:34.222Z,3.53
2023-10-08T06:38:08.312Z,4.67
2023-10-08T06:40:44.464Z,4.00
2023-10-08T06:43:25.619Z,4.10
2023-10-08T06:45:54.405Z,4.20
2023-10-08T06:48:24.883Z,3.30
2023-10-08T06:50:58.478Z,4.50
2023-10-08T06:53:30.737Z,5.00
2023-10-08T06:56:05.483Z,5.00
2023-10-08T06:58:34.394Z,4.10
2023-10-08T07:01:05.958Z,4.40
2023-10-08T07:03:35.095Z,4.60
2023-10-08T07:06:05.245Z,4.67
2023-10-08T07:08:34.267Z,4.53
2023-10-08T07:11:07.955Z,4.70
2023-10-08T07:13:38.235Z,4.47
2023-10-08T07:16:12.211Z,4.33
2023-10-08T07:18:40.582Z,5.23
2023-10-08T07:21:13.857Z,5.13
2023-10-08T07:23:57.329Z,3.87
2023-10-08T07:26:37.224Z,4.47
2023-10-08T07:29:09.619Z,4.27
2023-10-08T07:31:42.543Z,5.13
2023-10-08T07:34:19.078Z,4.43
2023-10-08T07:36:49.938Z,4.60
2023-10-08T07:39:27.112Z,5.13
2023-10-08T07:41:56.782Z,4.50
2023-10-08T07:44:25.368Z,4.37
2023-10-08T07:46:55.632Z,4.73
2023-10-08T07:49:24.183Z,4.27
2023-10-08T07:51:52.798Z,5.23
2023-10-08T07:54:23.865Z,4.70
2023-10-08T07:56:53.147Z,4.50
2023-10-08T07:59:23.190Z,4.13
2023-10-08T08:01:53.282Z,4.37
2023-10-08T08:04:23.991Z,4.57
2023-10-08T08:06:52.526Z,4.13
2023-10-08T08:09:21.524Z,4.40
2023-10-08T08:11:49.553Z,4.00
2023-10-08T08:14:18.915Z,3.83
2023-10-08T08:16:49.416Z,3.97
2023-10-08T08:19:17.996Z,3.73
2023-10-08T08:21:47.137Z,4.97
2023-10-08T08:24:29.663Z,4.57
2023-10-08T08:27:09.252Z,4.67
2023-10-08T08:29:45.591Z,3.80
2023-10-08T08:32:16.519Z,4.00
2023-10-08T08:34:45.027Z,4.10
2023-10-08T08:37:13.730Z,4.20
2023-10-08T08:39:42.636Z,5.00
2023-10-08T08:42:11.459Z,4.87
2023-10-08T08:44:46.825Z,4.60
2023-10-08T08:47:18.893Z,4.47
2023-10-08T08:49:47.971Z,4.67
2023-10-08T08:52:16.290Z,4.50
2023-10-08T08:54:44.454Z,4.40
2023-10-08T08:57:15.375Z,4.90
2023-10-08T08:59:49.885Z,3.87
2023-10-08T09:02:19.863Z,4.17
2023-10-08T09:04:50.170Z,4.23
2023-10-08T09:07:22.556Z,4.10
2023-10-08T09:09:51.361Z,5.00
2023-10-08T09:12:22.081Z,4.90
2023-10-08T09:14:49.998Z,4.00
2023-10-08T09:17:20.233Z,4.40
2023-10-08T09:19:48.078Z,4.00
2023-10-08T09:22:20.843Z,4.87
2023-10-08T09:24:51.924Z,4.50
2023-10-08T09:27:22.724Z,4.17
2023-10-08T09:29:51.333Z,4.87
2023-10-08T09:32:24.724Z,4.73
2023-10-08T09:34:54.255Z,4.37
2023-10-08T09:37:23.614Z,4.77
2023-10-08T09:39:53.350Z,4.43
2023-10-08T09:42:23.755Z,4.10
2023-10-08T09:44:52.590Z,4.20
2023-10-08T09:47:24.363Z,4.40
2023-10-08T09:50:08.962Z,4.63
2023-10-08T09:52:45.649Z,4.33
2023-10-08T09:55:13.681Z,3.70
2023-10-08T09:57:42.532Z,4.67
2023-10-08T10:00:16.236Z,4.10
2023-10-08T10:02:46.638Z,4.40
2023-10-08T10:05:15.213Z,3.63
2023-10-08T10:07:44.896Z,4.30
2023-10-08T10:10:28.492Z,3.83
2023-10-08T10:13:00.679Z,4.30
2023-10-08T10:15:31.452Z,4.90
2023-10-08T10:18:11.636Z,4.30
2023-10-08T10:20:42.554Z,4.03
2023-10-08T10:23:38.830Z,4.13
2023-10-08T10:26:10.902Z,4.57
2023-10-08T10:28:39.167Z,4.23
2023-10-08T10:31:09.040Z,4.10
2023-10-08T10:33:42.327Z,4.40
2023-10-08T10:36:14.664Z,4.57
2023-10-08T10:38:43.442Z,5.67
2023-10-08T10:41:11.496Z,4.53
2023-10-08T10:43:41.524Z,5.07
2023-10-08T10:46:30.636Z,5.03
2023-10-08T10:49:05.845Z,6.27
2023-10-08T10:51:35.088Z,4.33
2023-10-08T10:54:09.062Z,5.10
2023-10-08T10:56:44.068Z,5.00
2023-10-08T10:59:19.806Z,4.50
2023-10-08T11:01:53.320Z,4.67
2023-10-08T11:04:30.130Z,5.17
2023-10-08T11:07:01.928Z,4.97
2023-10-08T11:09:39.339Z,5.00
2023-10-08T11:12:12.461Z,4.73
2023-10-08T11:14:43.738Z,4.77
2023-10-08T11:17:13.670Z,4.60
2023-10-08T11:19:43.878Z,4.60
2023-10-08T11:22:17.152Z,4.93
2023-10-08T11:24:48.693Z,4.63
2023-10-08T11:27:18.561Z,4.97
2023-10-08T11:29:48.493Z,5.17
2023-10-08T11:32:18.914Z,4.87
2023-10-08T11:34:51.192Z,4.80
2023-10-08T11:37:29.001Z,5.40
2023-10-08T11:39:59.529Z,5.70
2023-10-08T11:42:41.534Z,5.50
2023-10-08T11:45:26.924Z,5.57
2023-10-08T11:47:58.231Z,5.10
2023-10-08T11:50:32.576Z,5.23
2023-10-08T11:53:06.600Z,5.00
2023-10-08T11:55:37.465Z,5.30
2023-10-08T11:58:11.169Z,5.13
2023-10-08T12:00:45.382Z,4.33
2023-10-08T12:03:14.459Z,4.50
2023-10-08T12:05:48.387Z,5.43
2023-10-08T12:08:17.991Z,4.73
2023-10-08T12:10:47.552Z,4.90
2023-10-08T12:13:19.379Z,4.97
2023-10-08T12:15:48.515Z,4.73
2023-10-08T12:18:25.914Z,5.00
2023-10-08T12:20:56.398Z,4.97
2023-10-08T12:23:26.987Z,5.37
2023-10-08T12:25:56.845Z,5.60
2023-10-08T12:28:25.587Z,4.70
2023-10-08T12:30:54.495Z,4.43
2023-10-08T12:33:25.055Z,4.80
2023-10-08T12:35:57.004Z,5.60
2023-10-08T12:38:25.330Z,4.20
2023-10-08T12:40:54.097Z,4.70
2023-10-08T12:43:22.836Z,4.77
2023-10-08T12:45:54.078Z,4.33
2023-10-08T12:48:23.096Z,4.30
2023-10-08T12:50:57.697Z,4.67
2023-10-08T12:53:35.748Z,4.70
2023-10-08T12:56:07.622Z,5.00
2023-10-08T12:58:42.656Z,3.60
2023-10-08T13:01:11.674Z,4.47
2023-10-08T13:03:43.142Z,4.40
2023-10-08T13:06:16.042Z,4.60
2023-10-08T13:08:45.546Z,4.40
2023-10-08T13:11:13.620Z,4.53
2023-10-08T13:13:42.523Z,4.70
2023-10-08T13:16:10.573Z,4.43
2023-10-08T13:18:39.279Z,4.87
2023-10-08T13:21:07.856Z,4.00
2023-10-08T13:23:36.658Z,5.43
2023-10-08T13:26:08.292Z,4.37
2023-10-08T13:28:36.952Z,4.57
2023-10-08T13:31:11.055Z,4.47
2023-10-08T13:33:41.386Z,5.00
2023-10-08T13:36:18.911Z,4.30
2023-10-08T13:38:48.576Z,4.97
2023-10-08T13:41:19.154Z,5.30
2023-10-08T13:43:48.285Z,4.70
2023-10-08T13:46:18.698Z,4.80
2023-10-08T13:48:49.793Z,4.37
2023-10-08T13:51:24.724Z,4.10
2023-10-08T13:53:54.576Z,4.90
2023-10-08T13:56:27.977Z,3.80
2023-10-08T13:59:05.275Z,5.00
2023-10-08T14:01:35.095Z,4.97
2023-10-08T14:04:07.530Z,5.30
2023-10-08T14:06:36.640Z,4.40
2023-10-08T14:09:08.826Z,5.33
2023-10-08T14:11:38.169Z,4.90
2023-10-08T14:14:12.295Z,4.47
2023-10-08T14:16:43.221Z,4.80
2023-10-08T14:19:13.728Z,5.00
2023-10-08T14:21:50.668Z,4.03
2023-10-08T14:24:18.873Z,4.97
2023-10-08T14:26:55.767Z,4.93
2023-10-08T14:29:25.739Z,5.83
2023-10-08T14:31:57.337Z,6.00
2023-10-08T14:34:51.384Z,5.03
2023-10-08T14:37:36.513Z,4.40
2023-10-08T14:40:22.628Z,4.87
2023-10-08T14:43:01.727Z,5.20
2023-10-08T14:45:34.565Z,4.30
2023-10-08T14:48:03.229Z,4.40
2023-10-08T14:50:34.087Z,3.70
2023-10-08T14:53:05.679Z,5.13
2023-10-08T14:55:35.839Z,4.80
2023-10-08T14:58:09.301Z,4.57
2023-10-08T15:00:38.659Z,3.90
2023-10-08T15:03:07.463Z,6.27
2023-10-08T15:05:37.934Z,4.03
2023-10-08T15:08:11.141Z,4.43
2023-10-08T15:10:39.753Z,4.20
2023-10-08T15:13:09.515Z,4.27
2023-10-08T15:15:37.424Z,5.13
2023-10-08T15:18:07.362Z,5.10
2023-10-08T15:20:36.273Z,4.70
2023-10-08T15:23:04.371Z,4.70
2023-10-08T15:25:32.317Z,5.03
2023-10-08T15:28:00.173Z,4.83
2023-10-08T15:30:30.684Z,4.63
2023-10-08T15:32:58.852Z,4.37
2023-10-08T15:35:27.033Z,5.23
2023-10-08T15:37:56.944Z,5.20
2023-10-08T15:40:25.378Z,4.70
2023-10-08T15:42:55.157Z,4.60
2023-10-08T15:45:25.917Z,5.00
2023-10-08T15:47:55.902Z,4.83
2023-10-08T15:50:26.502Z,5.50
2023-10-08T15:52:56.572Z,5.30
2023-10-08T15:55:26.615Z,4.90
2023-10-08T15:57:54.527Z,5.13
2023-10-08T16:00:22.560Z,7.10
2023-10-08T16:02:50.665Z,5.07
2023-10-08T16:05:19.990Z,5.80
2023-10-08T16:07:48.094Z,5.37
2023-10-08T16:10:16.327Z,6.17
2023-10-08T16:12:44.450Z,5.07
2023-10-08T16:15:12.785Z,6.77
2023-10-08T16:17:42.019Z,5.87
2023-10-08T16:20:16.442Z,5.50
2023-10-08T16:22:48.696Z,6.30
2023-10-08T16:25:17.630Z,5.27
2023-10-08T16:27:49.336Z,6.07
2023-10-08T16:30:20.718Z,5.70
2023-10-08T16:32:49.618Z,5.70
2023-10-08T16:35:17.943Z,6.80
2023-10-08T16:37:47.481Z,6.03
2023-10-08T16:40:15.577Z,4.77
2023-10-08T16:42:43.506Z,6.70
2023-10-08T16:45:12.142Z,4.77
2023-10-08T16:47:40.145Z,5.47
2023-10-08T16:50:09.427Z,5.53
2023-10-08T16:52:37.418Z,4.77
2023-10-08T16:55:07.266Z,5.87
2023-10-08T16:57:35.287Z,5.47
2023-10-08T17:00:11.914Z,5.50
2023-10-08T17:02:41.318Z,5.97
2023-10-08T17:05:10.574Z,5.37
2023-10-08T17:07:38.440Z,5.33
2023-10-08T17:10:09.256Z,5.93
2023-10-08T17:12:37.248Z,5.80
2023-10-08T17:15:06.859Z,6.23
2023-10-08T17:17:35.068Z,8.70
2023-10-08T17:20:04.353Z,6.23
2023-10-08T17:22:32.823Z,5.57
2023-10-08T17:25:00.781Z,6.50
2023-10-08T17:27:30.044Z,6.07
2023-10-08T17:29:57.958Z,5.80
2023-10-08T17:32:26.587Z,5.90
2023-10-08T17:34:55.308Z,5.90
2023-10-08T17:37:24.905Z,5.77
2023-10-08T17:39:52.879Z,5.50
2023-10-08T17:42:20.896Z,6.57
2023-10-08T17:44:50.124Z,6.37
2023-10-08T17:47:18.027Z,6.70
2023-10-08T17:49:46.180Z,6.63
2023-10-08T17:52:14.904Z,8.80
2023-10-08T17:54:44.137Z,8.63
2023-10-08T17:57:14.440Z,7.23
2023-10-08T17:59:42.869Z,7.13
2023-10-08T18:02:12.248Z,7.50
2023-10-08T18:04:40.241Z,6.60
2023-10-08T18:07:08.193Z,5.70
2023-10-08T18:09:37.389Z,5.20
2023-10-08T18:12:07.784Z,6.17
2023-10-08T18:14:36.320Z,5.90
2023-10-08T18:17:04.424Z,5.50
2023-10-08T18:19:33.687Z,5.33
2023-10-08T18:22:01.593Z,5.47
2023-10-08T18:24:29.582Z,6.00
2023-10-08T18:26:57.647Z,5.37
2023-10-08T18:29:26.777Z,6.33
2023-10-08T18:31:54.665Z,5.17
2023-10-08T18:34:22.568Z,5.53
2023-10-08T18:36:51.926Z,5.23
2023-10-08T18:39:19.946Z,6.87
2023-10-08T18:41:48.499Z,5.73
2023-10-08T18:44:18.241Z,5.20
2023-10-08T18:46:47.492Z,5.43
2023-10-08T18:49:16.471Z,6.10
2023-10-08T18:51:45.141Z,6.10
2023-10-08T18:54:14.703Z,5.93
2023-10-08T18:56:43.242Z,5.77
2023-10-08T18:59:12.774Z,4.80
2023-10-08T19:01:44.904Z,5.50
2023-10-08T19:04:13.424Z,4.90
2023-10-08T19:06:41.448Z,5.10
2023-10-08T19:09:11.611Z,5.80
2023-10-08T19:11:41.764Z,4.80
2023-10-08T19:14:09.938Z,4.70
2023-10-08T19:16:38.463Z,4.10
2023-10-08T19:19:09.394Z,5.17
2023-10-08T19:21:38.768Z,4.40
2023-10-08T19:24:08.515Z,5.17
2023-10-08T19:26:36.640Z,5.17
2023-10-08T19:29:06.192Z,4.20
2023-10-08T19:31:34.481Z,5.47
2023-10-08T19:34:02.708Z,5.40
2023-10-08T19:36:33.147Z,4.90
2023-10-08T19:39:01.679Z,3.53
2023-10-08T19:41:30.016Z,4.33
2023-10-08T19:43:59.925Z,4.13
2023-10-08T19:46:29.180Z,4.73
2023-10-08T19:48:57.303Z,4.10
2023-10-08T19:51:25.465Z,4.50
2023-10-08T19:53:54.229Z,4.10
2023-10-08T19:56:23.679Z,4.60
2023-10-08T19:58:51.497Z,6.53
2023-10-08T20:01:19.412Z,5.80
2023-10-08T20:03:48.869Z,4.73
2023-10-08T20:06:17.119Z,5.20
2023-10-08T20:08:46.403Z,4.23
2023-10-08T20:11:15.535Z,3.80
2023-10-08T20:13:45.581Z,4.07
2023-10-08T20:16:13.854Z,5.33
2023-10-08T20:18:42.096Z,3.93
2023-10-08T20:21:11.563Z,5.10
2023-10-08T20:23:40.699Z,5.63
2023-10-08T20:26:13.179Z,5.57
2023-10-08T20:28:41.055Z,6.20
2023-10-08T20:31:14.062Z,6.30
2023-10-08T20:33:42.375Z,6.93
2023-10-08T20:36:11.936Z,4.30
2023-10-08T20:38:40.330Z,5.10
2023-10-08T20:41:16.953Z,5.03
2023-10-08T20:43:45.315Z,4.30
2023-10-08T20:46:17.715Z,4.53
2023-10-08T20:48:47.252Z,5.10
2023-10-08T20:51:18.645Z,4.30
2023-10-08T20:53:48.137Z,5.37
2023-10-08T20:56:16.948Z,5.30
2023-10-08T20:58:45.190Z,5.07
2023-10-08T21:01:15.629Z,5.40
2023-10-08T21:03:43.632Z,5.67
2023-10-08T21:06:12.312Z,5.73
2023-10-08T21:08:41.528Z,5.73
2023-10-08T21:11:17.358Z,4.80
2023-10-08T21:13:45.837Z,4.00
2023-10-08T21:16:17.291Z,4.27
2023-10-08T21:18:45.265Z,3.80
2023-10-08T21:21:13.533Z,4.47
2023-10-08T21:23:42.842Z,3.80
2023-10-08T21:26:10.705Z,4.40
2023-10-08T21:28:39.106Z,3.33
2023-10-08T21:31:10.342Z,4.07
2023-10-08T21:33:38.581Z,4.13
2023-10-08T21:36:06.948Z,4.23
2023-10-08T21:38:35.030Z,3.90
2023-10-08T21:41:05.160Z,3.83
2023-10-08T21:43:33.710Z,3.93
2023-10-08T21:46:01.673Z,4.30
2023-10-08T21:48:30.786Z,3.77
2023-10-08T21:50:58.794Z,3.73
2023-10-08T21:53:27.199Z,3.10
2023-10-08T21:55:55.157Z,4.17
2023-10-08T21:58:25.026Z,3.23
2023-10-08T22:01:00.772Z,4.20
2023-10-08T22:03:29.083Z,3.80
2023-10-08T22:05:57.159Z,3.70
2023-10-08T22:08:26.230Z,3.17
2023-10-08T22:10:54.414Z,4.40
2023-10-08T22:13:22.265Z,4.30
2023-10-08T22:15:56.019Z,4.03
2023-10-08T22:18:31.091Z,3.53
2023-10-08T22:21:08.622Z,3.90
2023-10-08T22:23:39.989Z,3.77
2023-10-08T22:26:11.554Z,3.83
2023-10-08T22:28:43.236Z,4.00
2023-10-08T22:31:15.798Z,3.47
2023-10-08T22:33:49.223Z,3.60
2023-10-08T22:36:29.211Z,3.20
2023-10-08T22:38:58.394Z,3.80
2023-10-08T22:41:36.826Z,3.90
2023-10-08T22:44:06.713Z,4.20
2023-10-08T22:46:42.866Z,3.93
2023-10-08T22:49:19.418Z,4.07
2023-10-08T22:51:50.074Z,3.90
2023-10-08T22:54:18.683Z,3.70
2023-10-08T22:56:47.052Z,4.00
2023-10-08T22:59:17.031Z,3.97
2023-10-08T23:01:48.820Z,3.80
2023-10-08T23:04:17.854Z,3.87
2023-10-08T23:06:47.918Z,3.60
2023-10-08T23:09:16.235Z,3.87
2023-10-08T23:11:45.489Z,3.43
2023-10-08T23:14:15.456Z,3.50
2023-10-08T23:16:44.561Z,3.40
2023-10-08T23:19:15.465Z,3.37
2023-10-08T23:21:45.774Z,4.20
2023-10-08T23:24:14.462Z,4.67
2023-10-08T23:26:43.130Z,5.10
2023-10-08T23:29:11.047Z,4.07
2023-10-08T23:31:42.112Z,4.13
2023-10-08T23:34:11.324Z,3.30
2023-10-08T23:36:41.540Z,3.30
2023-10-08T23:39:17.464Z,3.80
2023-10-08T23:41:52.891Z,3.30
2023-10-08T23:44:27.378Z,3.77
2023-10-08T23:47:05.615Z,4.03
2023-10-08T23:49:48.116Z,4.40
2023-10-08T23:52:23.577Z,3.83
2023-10-08T23:54:57.787Z,4.20
2023-10-08T23:57:40.609Z,4.57
